createdAt,value
2023-01-22T00:03:54.892Z,18.43
2023-01-22T00:09:16.667Z,18.39
2023-01-22T00:14:38.374Z,18.35
2023-01-22T00:20:00.172Z,18.30
2023-01-22T00:25:21.907Z,18.25
2023-01-22T00:30:43.706Z,18.22
2023-01-22T00:36:11.265Z,18.20
2023-01-22T00:41:32.984Z,18.16
2023-01-22T00:46:54.693Z,18.13
2023-01-22T00:52:16.443Z,18.10
2023-01-22T00:57:38.194Z,18.06
2023-01-22T01:03:18.554Z,18.05
2023-01-22T01:08:42.614Z,18.02
2023-01-22T01:14:04.905Z,17.98
2023-01-22T01:19:26.602Z,17.94
2023-01-22T01:24:48.614Z,17.91
2023-01-22T01:30:10.826Z,17.87
2023-01-22T01:35:32.671Z,17.85
2023-01-22T01:40:54.369Z,17.82
2023-01-22T01:46:23.126Z,17.81
2023-01-22T01:51:45.824Z,17.78
2023-01-22T01:57:12.784Z,17.75
2023-01-22T02:02:34.492Z,17.72
2023-01-22T02:07:56.384Z,17.69
2023-01-22T02:13:26.310Z,17.69
2023-01-22T02:18:48.188Z,17.63
2023-01-22T02:24:15.051Z,17.57
2023-01-22T02:29:37.131Z,17.52
2023-01-22T02:34:59.148Z,17.49
2023-01-22T02:40:21.129Z,17.49
2023-01-22T02:45:43.131Z,17.48
2023-01-22T02:51:05.460Z,17.46
2023-01-22T02:56:27.291Z,17.43
2023-01-22T03:01:49.164Z,17.42
2023-01-22T03:07:10.889Z,17.42
2023-01-22T03:12:51.020Z,17.39
2023-01-22T03:18:32.364Z,17.37
2023-01-22T03:23:55.347Z,17.36
2023-01-22T03:29:17.144Z,17.34
2023-01-22T03:34:38.983Z,17.34
2023-01-22T03:40:00.748Z,17.32
2023-01-22T03:45:22.461Z,17.32
2023-01-22T03:50:44.146Z,17.30
2023-01-22T03:56:09.209Z,17.30
2023-01-22T04:01:31.119Z,17.30
2023-01-22T04:06:53.097Z,17.30
2023-01-22T04:12:14.803Z,17.29
2023-01-22T04:17:36.502Z,17.29
2023-01-22T04:22:58.285Z,17.26
2023-01-22T04:28:20.872Z,17.24
2023-01-22T04:33:42.570Z,17.25
2023-01-22T04:39:04.442Z,17.22
2023-01-22T04:44:26.190Z,17.21
2023-01-22T04:49:47.911Z,17.18
2023-01-22T04:55:10.145Z,17.16
2023-01-22T05:00:31.954Z,17.14
2023-01-22T05:05:53.700Z,17.13
2023-01-22T05:11:15.468Z,17.11
2023-01-22T05:16:37.196Z,17.08
2023-01-22T05:21:58.895Z,17.07
2023-01-22T05:27:20.868Z,17.04
2023-01-22T05:32:42.592Z,17.02
2023-01-22T05:38:04.303Z,17.00
2023-01-22T05:43:25.976Z,16.98
2023-01-22T05:48:47.828Z,16.96
2023-01-22T05:54:10.266Z,16.92
2023-01-22T05:59:32.099Z,16.91
2023-01-22T06:04:54.079Z,16.86
2023-01-22T06:10:16.834Z,16.85
2023-01-22T06:15:39.384Z,16.83
2023-01-22T06:21:03.352Z,16.81
2023-01-22T06:26:25.062Z,16.80
2023-01-22T06:31:46.896Z,16.79
2023-01-22T06:37:09.251Z,16.79
2023-01-22T06:42:30.983Z,16.87
2023-01-22T06:47:52.702Z,17.19
2023-01-22T06:53:14.631Z,17.82
2023-01-22T06:58:36.368Z,18.44
2023-01-22T07:03:58.098Z,18.83
2023-01-22T07:09:19.992Z,19.04
2023-01-22T07:14:41.744Z,19.22
2023-01-22T07:20:04.997Z,19.35
2023-01-22T07:25:27.779Z,19.36
2023-01-22T07:30:49.949Z,19.34
2023-01-22T07:36:11.662Z,19.27
2023-01-22T07:41:33.397Z,19.15
2023-01-22T07:46:55.175Z,19.03
2023-01-22T07:52:16.984Z,18.86
2023-01-22T07:57:38.753Z,18.84
2023-01-22T08:03:00.729Z,19.00
2023-01-22T08:08:22.379Z,19.30
2023-01-22T08:13:44.121Z,19.65
2023-01-22T08:19:05.816Z,19.96
2023-01-22T08:24:27.654Z,20.19
2023-01-22T08:29:52.415Z,20.20
2023-01-22T08:35:14.309Z,20.07
2023-01-22T08:40:37.910Z,19.91
2023-01-22T08:45:59.942Z,19.74
2023-01-22T08:51:23.632Z,19.52
2023-01-22T08:56:45.426Z,19.40
2023-01-22T09:02:12.754Z,19.49
2023-01-22T09:07:34.578Z,19.75
2023-01-22T09:12:59.710Z,20.07
2023-01-22T09:18:21.435Z,20.33
2023-01-22T09:23:43.144Z,20.58
2023-01-22T09:29:06.089Z,20.78
2023-01-22T09:34:27.901Z,20.97
2023-01-22T09:39:50.675Z,21.13
2023-01-22T09:45:15.352Z,21.33
2023-01-22T09:50:38.147Z,21.43
2023-01-22T09:56:00.677Z,21.54
2023-01-22T10:01:23.618Z,21.65
2023-01-22T10:06:46.394Z,21.73
2023-01-22T10:12:13.984Z,21.85
2023-01-22T10:17:36.963Z,21.91
2023-01-22T10:23:09.070Z,21.95
2023-01-22T10:28:50.557Z,22.04
2023-01-22T10:34:21.444Z,22.11
2023-01-22T10:39:46.249Z,22.15
2023-01-22T10:45:19.554Z,22.10
2023-01-22T10:50:42.428Z,22.08
2023-01-22T10:56:08.270Z,22.08
2023-01-22T11:01:35.785Z,22.07
2023-01-22T11:07:07.256Z,22.06
2023-01-22T11:12:42.976Z,22.05
2023-01-22T11:18:07.498Z,22.07
2023-01-22T11:23:47.869Z,22.12
2023-01-22T11:29:31.233Z,22.16
2023-01-22T11:35:01.308Z,22.21
2023-01-22T11:40:31.055Z,22.26
2023-01-22T11:46:13.854Z,22.30
2023-01-22T11:52:16.829Z,22.30
2023-01-22T11:57:59.759Z,22.20
2023-01-22T12:03:39.676Z,22.00
2023-01-22T12:09:07.278Z,21.73
2023-01-22T12:14:51.021Z,21.49
2023-01-22T12:20:54.479Z,21.22
2023-01-22T12:26:31.902Z,21.03
2023-01-22T12:32:11.204Z,20.83
2023-01-22T12:37:45.348Z,20.69
2023-01-22T12:43:08.003Z,20.54
2023-01-22T12:48:47.137Z,20.40
2023-01-22T12:54:28.493Z,20.31
2023-01-22T12:59:55.541Z,20.20
2023-01-22T13:05:20.421Z,20.14
2023-01-22T13:10:56.642Z,20.17
2023-01-22T13:16:36.570Z,20.26
2023-01-22T13:22:00.884Z,20.37
2023-01-22T13:27:32.489Z,20.52
2023-01-22T13:33:15.416Z,20.68
2023-01-22T13:38:37.954Z,20.70
2023-01-22T13:43:59.911Z,20.73
2023-01-22T13:49:25.702Z,20.78
2023-01-22T13:55:16.073Z,20.83
2023-01-22T14:00:37.842Z,20.83
2023-01-22T14:06:14.845Z,20.83
2023-01-22T14:11:40.796Z,20.81
2023-01-22T14:17:02.508Z,20.75
2023-01-22T14:22:24.739Z,20.70
2023-01-22T14:27:50.208Z,20.71
2023-01-22T14:33:23.241Z,20.68
2023-01-22T14:38:46.087Z,20.65
2023-01-22T14:44:08.486Z,20.59
2023-01-22T14:49:31.006Z,20.49
2023-01-22T14:54:52.791Z,20.39
2023-01-22T15:00:17.236Z,20.30
2023-01-22T15:05:39.096Z,20.19
2023-01-22T15:11:01.582Z,20.07
2023-01-22T15:16:23.309Z,19.98
2023-01-22T15:21:45.296Z,19.89
2023-01-22T15:27:07.826Z,19.78
2023-01-22T15:32:30.023Z,19.70
2023-01-22T15:37:51.760Z,19.67
2023-01-22T15:43:13.542Z,19.85
2023-01-22T15:48:37.273Z,20.21
2023-01-22T15:54:02.453Z,20.62
2023-01-22T15:59:24.288Z,21.00
2023-01-22T16:04:46.033Z,21.33
2023-01-22T16:10:08.067Z,21.54
2023-01-22T16:15:29.749Z,21.74
2023-01-22T16:20:51.570Z,21.92
2023-01-22T16:26:19.107Z,22.00
2023-01-22T16:31:41.232Z,22.03
2023-01-22T16:37:05.913Z,22.01
2023-01-22T16:42:27.653Z,21.91
2023-01-22T16:47:49.625Z,21.83
2023-01-22T16:53:11.342Z,21.75
2023-01-22T16:58:33.087Z,21.68
2023-01-22T17:03:54.919Z,21.63
2023-01-22T17:09:24.656Z,21.56
2023-01-22T17:14:48.419Z,21.48
2023-01-22T17:20:10.949Z,21.43
2023-01-22T17:25:32.679Z,21.42
2023-01-22T17:30:55.479Z,21.41
2023-01-22T17:36:22.702Z,21.40
2023-01-22T17:41:45.178Z,21.36
2023-01-22T17:47:06.919Z,21.28
2023-01-22T17:52:28.582Z,21.15
2023-01-22T17:57:54.762Z,21.03
2023-01-22T18:03:16.605Z,20.88
2023-01-22T18:08:40.049Z,20.74
2023-01-22T18:14:05.735Z,20.60
2023-01-22T18:19:27.797Z,20.46
2023-01-22T18:24:49.876Z,20.36
2023-01-22T18:30:12.183Z,20.27
2023-01-22T18:35:34.951Z,20.16
2023-01-22T18:40:57.047Z,20.06
2023-01-22T18:46:19.443Z,19.95
2023-01-22T18:51:42.266Z,19.95
2023-01-22T18:57:04.065Z,20.05
2023-01-22T19:02:25.819Z,20.28
2023-01-22T19:07:47.547Z,20.68
2023-01-22T19:13:09.593Z,21.13
2023-01-22T19:18:31.959Z,21.43
2023-01-22T19:23:59.224Z,21.56
2023-01-22T19:29:23.887Z,21.65
2023-01-22T19:34:45.750Z,21.77
2023-01-22T19:40:09.215Z,21.81
2023-01-22T19:45:31.004Z,21.80
2023-01-22T19:51:02.174Z,21.74
2023-01-22T19:56:26.419Z,21.63
2023-01-22T20:01:49.430Z,21.49
2023-01-22T20:07:11.471Z,21.37
2023-01-22T20:12:33.280Z,21.22
2023-01-22T20:17:54.973Z,21.09
2023-01-22T20:23:16.712Z,20.94
2023-01-22T20:28:39.745Z,20.82
2023-01-22T20:34:03.270Z,20.71
2023-01-22T20:39:25.263Z,20.59
2023-01-22T20:44:47.101Z,20.50
2023-01-22T20:50:09.431Z,20.43
2023-01-22T20:55:31.157Z,20.45
2023-01-22T21:00:52.902Z,20.45
2023-01-22T21:06:16.689Z,20.50
2023-01-22T21:11:40.398Z,20.55
2023-01-22T21:17:02.213Z,20.60
2023-01-22T21:22:24.023Z,20.64
2023-01-22T21:27:45.825Z,20.65
2023-01-22T21:33:07.604Z,20.62
2023-01-22T21:38:29.467Z,20.59
2023-01-22T21:44:09.839Z,20.55
2023-01-22T21:49:32.983Z,20.48
2023-01-22T21:54:54.729Z,20.37
2023-01-22T22:00:18.980Z,20.27
2023-01-22T22:05:42.323Z,20.16
2023-01-22T22:11:04.827Z,20.06
2023-01-22T22:16:28.053Z,19.95
2023-01-22T22:21:51.242Z,19.85
2023-01-22T22:27:13.374Z,19.77
2023-01-22T22:32:35.036Z,19.67
2023-01-22T22:37:57.091Z,19.60
2023-01-22T22:43:18.928Z,19.50
2023-01-22T22:48:41.219Z,19.45
2023-01-22T22:54:06.449Z,19.40
2023-01-22T22:59:28.152Z,19.33
2023-01-22T23:04:50.272Z,19.28
2023-01-22T23:10:28.916Z,19.22
2023-01-22T23:15:50.750Z,19.17
2023-01-22T23:21:17.676Z,19.12
2023-01-22T23:26:41.093Z,19.06
2023-01-22T23:32:03.006Z,19.01
2023-01-22T23:37:24.717Z,18.97
2023-01-22T23:42:50.235Z,18.94
2023-01-22T23:48:11.847Z,18.86
2023-01-22T23:53:40.267Z,18.84
2023-01-22T23:59:02.053Z,18.79
